createdAt,value
2019-04-25T00:02:36.649Z,99.90
2019-04-25T00:05:08.459Z,99.90
2019-04-25T00:07:37.595Z,99.90
2019-04-25T00:10:07.215Z,99.90
2019-04-25T00:12:37.853Z,99.90
2019-04-25T00:15:07.979Z,99.90
2019-04-25T00:17:38.582Z,99.90
2019-04-25T00:20:08.872Z,99.90
2019-04-25T00:23:03.377Z,99.90
2019-04-25T00:26:01.354Z,99.90
2019-04-25T00:28:31.643Z,99.90
2019-04-25T00:31:02.103Z,99.90
2019-04-25T00:33:31.622Z,99.90
2019-04-25T00:36:02.076Z,99.90
2019-04-25T00:38:32.364Z,99.90
2019-04-25T00:41:01.771Z,99.90
2019-04-25T00:43:31.727Z,99.90
2019-04-25T00:46:01.505Z,99.90
2019-04-25T00:48:31.690Z,99.90
2019-04-25T00:51:01.917Z,99.90
2019-04-25T00:53:32.401Z,99.90
2019-04-25T00:56:02.081Z,99.90
2019-04-25T00:58:45.274Z,99.90
2019-04-25T01:01:32.359Z,99.90
2019-04-25T01:04:02.290Z,99.90
2019-04-25T01:06:31.897Z,99.90
2019-04-25T01:09:02.375Z,99.90
2019-04-25T01:11:31.514Z,99.90
2019-04-25T01:14:02.147Z,99.90
2019-04-25T01:16:31.817Z,99.90
2019-04-25T01:19:01.403Z,99.90
2019-04-25T01:21:30.985Z,99.90
2019-04-25T01:24:00.534Z,99.90
2019-04-25T01:26:30.114Z,99.90
2019-04-25T01:29:00.025Z,99.90
2019-04-25T01:31:30.803Z,99.90
2019-04-25T01:34:00.127Z,99.90
2019-04-25T01:36:36.302Z,99.90
2019-04-25T01:39:12.127Z,99.90
2019-04-25T01:42:05.272Z,99.90
2019-04-25T01:44:38.499Z,99.90
2019-04-25T01:47:07.794Z,99.90
2019-04-25T01:49:37.831Z,99.90
2019-04-25T01:52:07.023Z,99.90
2019-04-25T01:54:36.499Z,99.90
2019-04-25T01:57:05.995Z,99.90
2019-04-25T01:59:35.200Z,99.90
2019-04-25T02:02:06.659Z,99.90
2019-04-25T02:04:36.450Z,99.90
2019-04-25T02:07:07.288Z,99.90
2019-04-25T02:09:36.495Z,99.90
2019-04-25T02:12:20.686Z,99.90
2019-04-25T02:14:49.823Z,99.90
2019-04-25T02:17:19.985Z,99.90
2019-04-25T02:19:49.169Z,99.90
2019-04-25T02:22:18.376Z,99.90
2019-04-25T02:24:47.950Z,99.90
2019-04-25T02:27:17.095Z,99.90
2019-04-25T02:29:46.203Z,99.90
2019-04-25T02:32:15.785Z,99.90
2019-04-25T02:34:45.712Z,99.90
2019-04-25T02:37:15.021Z,99.90
2019-04-25T02:39:45.021Z,99.90
2019-04-25T02:42:16.843Z,99.90
2019-04-25T02:44:51.831Z,99.90
2019-04-25T02:47:34.270Z,99.90
2019-04-25T02:50:34.459Z,99.90
2019-04-25T02:53:29.982Z,99.90
2019-04-25T02:55:59.736Z,99.90
2019-04-25T02:58:29.106Z,99.90
2019-04-25T03:01:08.262Z,99.90
2019-04-25T03:03:30.380Z,99.90
2019-04-25T03:06:01.359Z,99.90
2019-04-25T03:08:31.125Z,99.90
2019-04-25T03:11:01.432Z,99.90
2019-04-25T03:13:31.003Z,99.90
2019-04-25T03:16:00.690Z,99.90
2019-04-25T03:18:31.897Z,99.90
2019-04-25T03:21:13.369Z,99.90
2019-04-25T03:23:42.064Z,99.90
2019-04-25T03:26:09.496Z,99.90
2019-04-25T03:28:39.032Z,99.90
2019-04-25T03:31:14.074Z,99.90
2019-04-25T03:33:40.084Z,99.90
2019-04-25T03:36:09.413Z,99.90
2019-04-25T03:38:38.850Z,99.90
2019-04-25T03:41:08.679Z,99.90
2019-04-25T03:43:37.888Z,99.90
2019-04-25T03:46:07.074Z,99.90
2019-04-25T03:48:37.018Z,99.90
2019-04-25T03:51:06.840Z,99.90
2019-04-25T03:53:36.432Z,99.90
2019-04-25T03:56:07.217Z,99.90
2019-04-25T03:58:37.107Z,99.90
2019-04-25T04:01:07.931Z,99.90
2019-04-25T04:03:37.275Z,99.90
2019-04-25T04:06:08.296Z,99.90
2019-04-25T04:08:37.824Z,99.90
2019-04-25T04:11:07.861Z,99.90
2019-04-25T04:13:37.776Z,99.90
2019-04-25T04:16:07.235Z,99.90
2019-04-25T04:18:44.590Z,99.90
2019-04-25T04:21:31.436Z,99.90
2019-04-25T04:24:36.999Z,99.90
2019-04-25T04:27:15.848Z,99.90
2019-04-25T04:29:46.505Z,99.90
2019-04-25T04:32:16.329Z,99.90
2019-04-25T04:34:46.552Z,99.90
2019-04-25T04:37:16.360Z,99.90
2019-04-25T04:39:46.331Z,99.90
2019-04-25T04:42:16.263Z,99.90
2019-04-25T04:44:45.479Z,99.90
2019-04-25T04:47:15.461Z,99.90
2019-04-25T04:49:44.991Z,99.90
2019-04-25T04:52:14.740Z,99.90
2019-04-25T04:54:44.898Z,99.90
2019-04-25T04:57:26.617Z,99.90
2019-04-25T04:59:45.651Z,99.90
2019-04-25T05:02:27.543Z,99.90
2019-04-25T05:05:06.111Z,99.90
2019-04-25T05:07:41.715Z,99.90
2019-04-25T05:10:11.347Z,99.90
2019-04-25T05:12:40.907Z,99.90
2019-04-25T05:15:10.556Z,99.90
2019-04-25T05:17:40.016Z,99.90
2019-04-25T05:20:09.692Z,99.90
2019-04-25T05:22:39.142Z,99.90
2019-04-25T05:25:08.474Z,99.90
2019-04-25T05:27:56.753Z,99.90
2019-04-25T05:30:11.051Z,99.90
2019-04-25T05:32:40.791Z,99.90
2019-04-25T05:35:09.976Z,99.90
2019-04-25T05:37:39.787Z,99.90
2019-04-25T05:40:09.799Z,99.90
2019-04-25T05:42:49.297Z,99.90
2019-04-25T05:45:20.078Z,99.90
2019-04-25T05:47:49.890Z,99.90
2019-04-25T05:50:19.836Z,99.90
2019-04-25T05:52:49.824Z,99.90
2019-04-25T05:55:20.218Z,99.90
2019-04-25T05:57:50.579Z,99.90
2019-04-25T06:00:20.708Z,99.90
2019-04-25T06:02:49.935Z,99.90
2019-04-25T06:05:19.362Z,99.90
2019-04-25T06:07:49.086Z,99.90
2019-04-25T06:10:40.880Z,99.90
2019-04-25T06:13:29.054Z,99.90
2019-04-25T06:16:03.565Z,99.90
2019-04-25T06:18:54.982Z,99.90
2019-04-25T06:21:24.545Z,99.90
2019-04-25T06:24:11.249Z,99.90
2019-04-25T06:26:47.760Z,99.90
2019-04-25T06:29:17.268Z,99.90
2019-04-25T06:31:46.814Z,99.90
2019-04-25T06:34:15.931Z,99.90
2019-04-25T06:36:45.478Z,99.90
2019-04-25T06:39:15.060Z,99.90
2019-04-25T06:41:45.204Z,99.90
2019-04-25T06:44:30.932Z,99.90
2019-04-25T06:47:08.284Z,99.90
2019-04-25T06:49:38.607Z,99.90
2019-04-25T06:52:08.107Z,99.90
2019-04-25T06:54:38.164Z,99.90
2019-04-25T06:57:07.731Z,99.90
2019-04-25T06:59:40.898Z,99.90
2019-04-25T07:02:09.088Z,99.90
2019-04-25T07:04:38.881Z,99.90
2019-04-25T07:07:11.999Z,99.90
2019-04-25T07:09:38.956Z,99.90
2019-04-25T07:12:08.575Z,99.90
2019-04-25T07:14:38.078Z,99.90
2019-04-25T07:17:07.359Z,99.90
2019-04-25T07:19:37.186Z,99.90
2019-04-25T07:22:06.332Z,99.90
2019-04-25T07:24:36.060Z,99.90
2019-04-25T07:27:17.049Z,99.90
2019-04-25T07:30:11.643Z,99.90
2019-04-25T07:32:45.386Z,99.90
2019-04-25T07:35:14.611Z,99.90
2019-04-25T07:37:44.235Z,99.90
2019-04-25T07:40:14.051Z,99.90
2019-04-25T07:42:44.016Z,99.90
2019-04-25T07:45:15.113Z,99.90
2019-04-25T07:47:44.766Z,99.90
2019-04-25T07:50:15.399Z,99.90
2019-04-25T07:52:45.478Z,99.90
2019-04-25T07:55:14.928Z,99.90
2019-04-25T07:57:44.439Z,99.90
2019-04-25T08:00:16.003Z,97.70
2019-04-25T08:02:45.149Z,97.10
2019-04-25T08:05:16.848Z,96.30
2019-04-25T08:07:46.089Z,92.60
2019-04-25T08:10:16.399Z,91.60
2019-04-25T08:12:47.497Z,90.40
2019-04-25T08:15:36.727Z,87.80
2019-04-25T08:18:07.860Z,84.60
2019-04-25T08:20:37.679Z,82.30
2019-04-25T08:23:07.050Z,78.80
2019-04-25T08:25:39.281Z,78.00
2019-04-25T08:28:07.675Z,75.30
2019-04-25T08:30:38.133Z,73.80
2019-04-25T08:33:07.476Z,72.00
2019-04-25T08:35:36.668Z,68.70
2019-04-25T08:38:06.095Z,65.00
2019-04-25T08:40:37.302Z,63.40
2019-04-25T08:43:06.086Z,61.10
2019-04-25T08:45:35.790Z,62.70
2019-04-25T08:48:06.314Z,62.30
2019-04-25T08:50:51.312Z,62.10
2019-04-25T08:53:23.783Z,61.00
2019-04-25T08:56:04.664Z,62.30
2019-04-25T08:58:43.635Z,59.20
2019-04-25T09:01:34.201Z,57.10
2019-04-25T09:04:14.515Z,57.80
2019-04-25T09:06:44.309Z,58.00
2019-04-25T09:09:13.947Z,57.10
2019-04-25T09:11:44.657Z,55.50
2019-04-25T09:14:13.940Z,55.80
2019-04-25T09:16:45.100Z,54.30
2019-04-25T09:19:15.091Z,55.50
2019-04-25T09:21:48.130Z,54.20
2019-04-25T09:24:15.454Z,55.00
2019-04-25T09:26:45.419Z,54.10
2019-04-25T09:29:19.409Z,53.60
2019-04-25T09:31:46.126Z,53.60
2019-04-25T09:34:16.419Z,51.80
2019-04-25T09:36:45.555Z,51.90
2019-04-25T09:39:44.286Z,50.80
2019-04-25T09:42:14.240Z,51.40
2019-04-25T09:45:13.345Z,50.50
2019-04-25T09:47:45.710Z,49.90
2019-04-25T09:50:34.615Z,51.10
2019-04-25T09:53:04.557Z,50.80
2019-04-25T09:55:44.399Z,49.30
2019-04-25T09:58:17.164Z,49.40
2019-04-25T10:00:49.529Z,50.20
2019-04-25T10:03:19.052Z,49.60
2019-04-25T10:05:48.580Z,50.10
2019-04-25T10:08:18.259Z,50.50
2019-04-25T10:10:47.743Z,48.50
2019-04-25T10:13:17.279Z,48.80
2019-04-25T10:15:52.906Z,47.60
2019-04-25T10:18:29.120Z,48.80
2019-04-25T10:20:58.323Z,47.70
2019-04-25T10:23:27.502Z,47.60
2019-04-25T10:25:57.695Z,47.00
2019-04-25T10:28:27.985Z,46.80
2019-04-25T10:30:57.182Z,46.50
2019-04-25T10:33:27.523Z,47.70
2019-04-25T10:35:59.502Z,44.50
2019-04-25T10:38:28.200Z,45.20
2019-04-25T10:40:57.809Z,44.10
2019-04-25T10:43:27.332Z,45.00
2019-04-25T10:45:57.004Z,45.90
2019-04-25T10:48:26.762Z,44.00
2019-04-25T10:50:56.434Z,42.90
2019-04-25T10:53:25.639Z,42.90
2019-04-25T10:55:54.862Z,43.30
2019-04-25T10:58:24.017Z,44.00
2019-04-25T11:00:53.915Z,42.50
2019-04-25T11:03:33.685Z,42.80
2019-04-25T11:06:04.015Z,42.70
2019-04-25T11:08:34.146Z,43.70
2019-04-25T11:11:04.151Z,42.40
2019-04-25T11:13:35.396Z,42.50
2019-04-25T11:16:07.003Z,41.90
2019-04-25T11:18:36.160Z,41.40
2019-04-25T11:21:06.096Z,40.90
2019-04-25T11:23:35.510Z,42.30
2019-04-25T11:26:04.835Z,42.20
2019-04-25T11:28:34.375Z,43.10
2019-04-25T11:31:05.391Z,41.80
2019-04-25T11:33:35.354Z,41.40
2019-04-25T11:36:04.593Z,38.60
2019-04-25T11:38:42.685Z,38.60
2019-04-25T11:41:15.203Z,38.00
2019-04-25T11:43:46.344Z,39.30
2019-04-25T11:46:16.549Z,38.60
2019-04-25T11:48:46.387Z,39.10
2019-04-25T11:51:15.991Z,37.50
2019-04-25T11:53:47.009Z,37.30
2019-04-25T11:56:16.464Z,37.20
2019-04-25T11:58:47.543Z,36.80
2019-04-25T12:01:18.180Z,36.10
2019-04-25T12:03:48.919Z,35.90
2019-04-25T12:06:18.299Z,36.30
2019-04-25T12:08:47.956Z,35.20
2019-04-25T12:11:17.271Z,34.30
2019-04-25T12:13:47.839Z,34.50
2019-04-25T12:16:17.839Z,34.10
2019-04-25T12:18:49.209Z,34.00
2019-04-25T12:21:17.961Z,33.30
2019-04-25T12:23:48.732Z,33.90
2019-04-25T12:26:17.952Z,33.90
2019-04-25T12:28:47.282Z,35.10
2019-04-25T12:31:16.527Z,33.10
2019-04-25T12:33:47.644Z,32.60
2019-04-25T12:36:17.510Z,32.30
2019-04-25T12:38:46.916Z,31.80
2019-04-25T12:41:16.072Z,31.20
2019-04-25T12:43:52.794Z,29.50
2019-04-25T12:46:34.644Z,29.20
2019-04-25T12:49:03.691Z,28.40
2019-04-25T12:51:33.178Z,28.90
2019-04-25T12:54:03.921Z,28.80
2019-04-25T12:56:34.248Z,29.10
2019-04-25T12:59:04.643Z,29.00
2019-04-25T13:01:34.454Z,29.50
2019-04-25T13:04:04.162Z,28.60
2019-04-25T13:06:34.450Z,29.40
2019-04-25T13:09:05.769Z,29.00
2019-04-25T13:11:35.277Z,29.10
2019-04-25T13:14:04.402Z,28.30
2019-04-25T13:16:34.214Z,28.40
2019-04-25T13:19:12.729Z,28.00
2019-04-25T13:21:34.547Z,27.80
2019-04-25T13:24:03.756Z,29.40
2019-04-25T13:26:38.051Z,27.90
2019-04-25T13:29:33.218Z,28.10
2019-04-25T13:32:24.583Z,28.10
2019-04-25T13:34:54.295Z,27.40
2019-04-25T13:37:24.236Z,28.10
2019-04-25T13:39:54.077Z,27.60
2019-04-25T13:42:23.739Z,27.60
2019-04-25T13:44:54.279Z,28.00
2019-04-25T13:47:27.997Z,26.90
2019-04-25T13:49:54.815Z,28.20
2019-04-25T13:52:25.125Z,27.60
2019-04-25T13:54:54.751Z,28.00
2019-04-25T13:57:25.260Z,28.00
2019-04-25T13:59:55.501Z,28.30
2019-04-25T14:02:25.107Z,28.50
2019-04-25T14:04:54.243Z,28.60
2019-04-25T14:07:23.746Z,28.80
2019-04-25T14:09:53.263Z,28.80
2019-04-25T14:12:23.895Z,27.00
2019-04-25T14:14:54.110Z,28.60
2019-04-25T14:17:36.171Z,29.00
2019-04-25T14:20:39.775Z,28.20
2019-04-25T14:23:12.954Z,28.40
2019-04-25T14:25:41.824Z,27.80
2019-04-25T14:28:11.037Z,27.80
2019-04-25T14:30:40.443Z,28.30
2019-04-25T14:33:09.971Z,27.50
2019-04-25T14:35:39.560Z,26.70
2019-04-25T14:38:08.708Z,27.60
2019-04-25T14:40:38.245Z,28.60
2019-04-25T14:43:07.759Z,28.10
2019-04-25T14:45:44.450Z,28.00
2019-04-25T14:48:08.546Z,27.90
2019-04-25T14:50:37.674Z,28.10
2019-04-25T14:53:06.844Z,28.10
2019-04-25T14:55:45.195Z,28.50
2019-04-25T14:58:16.507Z,28.10
2019-04-25T15:00:46.921Z,28.60
2019-04-25T15:03:16.714Z,29.20
2019-04-25T15:05:46.316Z,28.20
2019-04-25T15:08:15.768Z,28.40
2019-04-25T15:10:44.931Z,28.70
2019-04-25T15:13:15.288Z,28.10
2019-04-25T15:15:44.887Z,28.50
2019-04-25T15:18:14.019Z,28.70
2019-04-25T15:20:43.823Z,28.80
2019-04-25T15:23:13.307Z,28.30
2019-04-25T15:25:43.429Z,28.30
2019-04-25T15:28:12.907Z,28.80
2019-04-25T15:30:42.555Z,28.20
2019-04-25T15:33:12.469Z,28.30
2019-04-25T15:35:53.443Z,28.20
2019-04-25T15:38:29.397Z,28.00
2019-04-25T15:41:11.264Z,28.50
2019-04-25T15:43:57.659Z,28.60
2019-04-25T15:46:30.261Z,29.50
2019-04-25T15:48:59.779Z,28.90
2019-04-25T15:51:29.844Z,28.70
2019-04-25T15:53:59.919Z,29.00
2019-04-25T15:56:29.107Z,29.40
2019-04-25T15:58:58.788Z,29.20
2019-04-25T16:01:28.794Z,29.40
2019-04-25T16:03:58.262Z,29.80
2019-04-25T16:06:28.313Z,29.80
2019-04-25T16:08:57.880Z,30.70
2019-04-25T16:11:28.030Z,31.40
2019-04-25T16:13:57.292Z,30.90
2019-04-25T16:16:26.886Z,30.80
2019-04-25T16:18:56.373Z,31.20
2019-04-25T16:21:26.570Z,31.10
2019-04-25T16:23:56.867Z,31.60
2019-04-25T16:26:26.973Z,32.10
2019-04-25T16:28:57.175Z,32.90
2019-04-25T16:31:26.753Z,32.20
2019-04-25T16:33:56.331Z,32.60
2019-04-25T16:36:25.807Z,32.40
2019-04-25T16:38:55.330Z,32.20
2019-04-25T16:41:24.835Z,32.30
2019-04-25T16:43:59.069Z,32.50
2019-04-25T16:46:30.077Z,32.20
2019-04-25T16:48:59.396Z,32.50
2019-04-25T16:51:29.260Z,32.70
2019-04-25T16:53:58.912Z,32.50
2019-04-25T16:56:29.358Z,33.00
2019-04-25T16:58:58.986Z,32.70
2019-04-25T17:01:30.227Z,33.70
2019-04-25T17:04:00.228Z,33.70
2019-04-25T17:06:30.130Z,33.90
2019-04-25T17:08:59.936Z,34.10
2019-04-25T17:11:29.500Z,34.10
2019-04-25T17:14:07.571Z,34.20
2019-04-25T17:16:57.803Z,33.90
2019-04-25T17:19:44.995Z,34.20
2019-04-25T17:22:14.790Z,34.60
2019-04-25T17:24:44.027Z,34.80
2019-04-25T17:27:13.850Z,34.90
2019-04-25T17:29:43.638Z,35.10
2019-04-25T17:32:24.747Z,35.00
2019-04-25T17:35:11.963Z,35.00
2019-04-25T17:37:58.676Z,35.20
2019-04-25T17:40:31.304Z,35.00
2019-04-25T17:43:10.404Z,35.10
2019-04-25T17:45:33.460Z,35.10
2019-04-25T17:48:02.719Z,35.40
2019-04-25T17:50:31.903Z,36.00
2019-04-25T17:53:02.609Z,36.20
2019-04-25T17:55:33.191Z,36.80
2019-04-25T17:58:02.896Z,36.90
2019-04-25T18:00:36.373Z,36.80
2019-04-25T18:03:07.731Z,37.20
2019-04-25T18:05:36.879Z,37.40
2019-04-25T18:08:06.216Z,37.30
2019-04-25T18:10:35.629Z,37.50
2019-04-25T18:13:06.005Z,37.60
2019-04-25T18:15:41.787Z,37.90
2019-04-25T18:18:18.350Z,38.10
2019-04-25T18:20:48.211Z,38.80
2019-04-25T18:23:35.156Z,39.00
2019-04-25T18:26:14.292Z,39.10
2019-04-25T18:28:49.834Z,38.50
2019-04-25T18:31:19.383Z,38.70
2019-04-25T18:33:51.267Z,49.60
2019-04-25T18:36:45.775Z,54.70
2019-04-25T18:39:37.769Z,56.10
2019-04-25T18:42:26.067Z,57.20
2019-04-25T18:44:56.171Z,58.20
2019-04-25T18:47:25.756Z,58.60
2019-04-25T18:49:55.158Z,59.00
2019-04-25T18:52:55.832Z,59.30
2019-04-25T18:55:38.846Z,60.50
2019-04-25T18:58:15.003Z,60.80
2019-04-25T19:00:57.039Z,61.00
2019-04-25T19:03:45.840Z,61.70
2019-04-25T19:06:17.307Z,62.20
2019-04-25T19:08:47.167Z,63.20
2019-04-25T19:11:16.470Z,64.30
2019-04-25T19:13:45.706Z,65.60
2019-04-25T19:16:15.256Z,66.70
2019-04-25T19:18:46.683Z,68.60
2019-04-25T19:21:16.509Z,70.60
2019-04-25T19:23:46.109Z,73.30
2019-04-25T19:26:15.393Z,77.10
2019-04-25T19:28:44.962Z,82.10
2019-04-25T19:31:14.604Z,88.00
2019-04-25T19:33:44.102Z,92.00
2019-04-25T19:36:13.386Z,95.40
2019-04-25T19:38:46.012Z,99.00
2019-04-25T19:41:23.112Z,99.90
2019-04-25T19:43:55.695Z,99.90
2019-04-25T19:46:38.935Z,99.90
2019-04-25T19:49:08.431Z,99.90
2019-04-25T19:51:38.436Z,99.90
2019-04-25T19:54:08.243Z,99.90
2019-04-25T19:56:37.705Z,99.90
2019-04-25T19:59:07.260Z,99.90
2019-04-25T20:01:37.073Z,99.90
2019-04-25T20:04:13.218Z,99.90
2019-04-25T20:07:02.227Z,99.90
2019-04-25T20:10:08.215Z,99.90
2019-04-25T20:12:46.351Z,99.90
2019-04-25T20:15:17.362Z,99.90
2019-04-25T20:17:47.618Z,99.90
2019-04-25T20:20:19.789Z,99.90
2019-04-25T20:22:54.407Z,99.90
2019-04-25T20:25:24.476Z,99.90
2019-04-25T20:28:05.934Z,99.90
2019-04-25T20:30:35.468Z,99.90
2019-04-25T20:33:04.966Z,99.90
2019-04-25T20:35:34.597Z,99.90
2019-04-25T20:38:03.907Z,99.90
2019-04-25T20:40:33.071Z,99.90
2019-04-25T20:43:02.782Z,99.90
2019-04-25T20:45:32.011Z,99.90
2019-04-25T20:48:04.514Z,99.90
2019-04-25T20:50:33.904Z,99.90
2019-04-25T20:53:03.235Z,99.90
2019-04-25T20:55:32.906Z,99.90
2019-04-25T20:58:02.260Z,99.90
2019-04-25T21:00:42.641Z,99.90
2019-04-25T21:03:12.018Z,99.90
2019-04-25T21:05:46.481Z,99.90
2019-04-25T21:08:15.783Z,99.90
2019-04-25T21:10:45.265Z,99.90
2019-04-25T21:13:19.403Z,99.90
2019-04-25T21:16:07.955Z,99.90
2019-04-25T21:18:44.860Z,99.90
2019-04-25T21:21:14.551Z,99.90
2019-04-25T21:23:43.948Z,99.90
2019-04-25T21:26:13.788Z,99.90
2019-04-25T21:28:43.024Z,99.90
2019-04-25T21:31:12.699Z,99.90
2019-04-25T21:33:41.943Z,99.90
2019-04-25T21:36:11.807Z,99.90
2019-04-25T21:38:41.408Z,99.90
2019-04-25T21:41:27.799Z,99.90
2019-04-25T21:44:02.268Z,99.90
2019-04-25T21:46:32.947Z,99.90
2019-04-25T21:49:03.126Z,99.90
2019-04-25T21:51:33.079Z,99.90
2019-04-25T21:54:03.724Z,99.90
2019-04-25T21:56:33.079Z,99.90
2019-04-25T21:59:02.612Z,99.90
2019-04-25T22:01:34.995Z,99.90
2019-04-25T22:04:05.167Z,99.90
2019-04-25T22:06:35.179Z,99.90
2019-04-25T22:09:08.007Z,99.90
2019-04-25T22:11:37.541Z,99.90
2019-04-25T22:14:08.271Z,99.90
2019-04-25T22:16:37.984Z,99.90
2019-04-25T22:19:07.758Z,99.90
2019-04-25T22:21:38.430Z,99.90
2019-04-25T22:24:11.136Z,99.90
2019-04-25T22:26:39.700Z,99.90
2019-04-25T22:29:09.123Z,99.90
2019-04-25T22:31:48.807Z,99.90
2019-04-25T22:34:23.826Z,99.90
2019-04-25T22:36:53.018Z,99.90
2019-04-25T22:39:22.215Z,99.90
2019-04-25T22:41:52.199Z,99.90
2019-04-25T22:44:22.720Z,99.90
2019-04-25T22:46:53.107Z,99.90
2019-04-25T22:49:22.290Z,99.90
2019-04-25T22:51:51.433Z,99.90
2019-04-25T22:54:22.539Z,99.90
2019-04-25T22:56:52.518Z,99.90
2019-04-25T22:59:22.643Z,99.90
2019-04-25T23:02:02.415Z,99.90
2019-04-25T23:05:05.306Z,99.90
2019-04-25T23:07:29.488Z,99.90
2019-04-25T23:09:59.426Z,99.90
2019-04-25T23:12:29.244Z,99.90
2019-04-25T23:14:58.700Z,99.90
2019-04-25T23:17:27.982Z,99.90
2019-04-25T23:19:58.016Z,99.90
2019-04-25T23:22:27.500Z,99.90
2019-04-25T23:25:16.058Z,99.90
2019-04-25T23:28:10.639Z,99.90
2019-04-25T23:31:03.851Z,99.90
2019-04-25T23:33:34.839Z,99.90
2019-04-25T23:36:04.524Z,99.90
2019-04-25T23:38:34.761Z,99.90
2019-04-25T23:41:05.790Z,99.90
2019-04-25T23:43:35.479Z,99.90
2019-04-25T23:46:05.675Z,99.90
2019-04-25T23:48:35.663Z,99.90
2019-04-25T23:51:05.198Z,99.90
2019-04-25T23:53:35.592Z,99.90
2019-04-25T23:56:04.731Z,99.90
2019-04-25T23:58:33.927Z,99.90
